sensor_id;sensor_type;location;lat;lon;timestamp;P1;durP1;ratioP1;P2;durP2;ratioP2
9102;SDS011;4587;51.434;6.788;2022-09-09T00:01:08;2.93;;;1.10;;
9102;SDS011;4587;51.434;6.788;2022-09-09T00:03:43;2.43;;;1.00;;
9102;SDS011;4587;51.434;6.788;2022-09-09T00:09:13;2.07;;;0.80;;
9102;SDS011;4587;51.434;6.788;2022-09-09T00:11:43;1.63;;;1.03;;
9102;SDS011;4587;51.434;6.788;2022-09-09T00:14:40;1.50;;;0.70;;
9102;SDS011;4587;51.434;6.788;2022-09-09T00:17:16;3.93;;;0.90;;
9102;SDS011;4587;51.434;6.788;2022-09-09T00:28:02;4.40;;;1.10;;
9102;SDS011;4587;51.434;6.788;2022-09-09T00:30:35;4.50;;;0.80;;
9102;SDS011;4587;51.434;6.788;2022-09-09T00:33:09;4.70;;;1.03;;
9102;SDS011;4587;51.434;6.788;2022-09-09T00:35:40;2.97;;;0.90;;
9102;SDS011;4587;51.434;6.788;2022-09-09T00:38:37;4.33;;;1.10;;
9102;SDS011;4587;51.434;6.788;2022-09-09T00:41:22;4.47;;;1.30;;
9102;SDS011;4587;51.434;6.788;2022-09-09T00:55:03;2.80;;;0.90;;
9102;SDS011;4587;51.434;6.788;2022-09-09T00:57:36;2.57;;;1.03;;
9102;SDS011;4587;51.434;6.788;2022-09-09T01:05:47;3.20;;;1.03;;
9102;SDS011;4587;51.434;6.788;2022-09-09T01:10:58;2.13;;;0.80;;
9102;SDS011;4587;51.434;6.788;2022-09-09T01:13:28;1.40;;;0.70;;
9102;SDS011;4587;51.434;6.788;2022-09-09T01:15:56;2.03;;;0.83;;
9102;SDS011;4587;51.434;6.788;2022-09-09T01:18:35;1.80;;;0.93;;
9102;SDS011;4587;51.434;6.788;2022-09-09T01:21:20;2.03;;;0.97;;
9102;SDS011;4587;51.434;6.788;2022-09-09T01:24:16;1.93;;;0.90;;
9102;SDS011;4587;51.434;6.788;2022-09-09T01:27:03;1.57;;;0.83;;
9102;SDS011;4587;51.434;6.788;2022-09-09T01:29:30;3.93;;;1.10;;
9102;SDS011;4587;51.434;6.788;2022-09-09T01:31:57;2.60;;;0.90;;
9102;SDS011;4587;51.434;6.788;2022-09-09T01:34:26;3.87;;;1.50;;
9102;SDS011;4587;51.434;6.788;2022-09-09T01:37:01;2.00;;;0.90;;
9102;SDS011;4587;51.434;6.788;2022-09-09T01:39:29;2.37;;;1.17;;
9102;SDS011;4587;51.434;6.788;2022-09-09T01:41:56;2.93;;;0.90;;
9102;SDS011;4587;51.434;6.788;2022-09-09T01:44:22;4.93;;;1.37;;
9102;SDS011;4587;51.434;6.788;2022-09-09T01:46:50;2.13;;;1.40;;
9102;SDS011;4587;51.434;6.788;2022-09-09T01:49:16;4.00;;;1.50;;
9102;SDS011;4587;51.434;6.788;2022-09-09T01:51:42;4.60;;;1.53;;
9102;SDS011;4587;51.434;6.788;2022-09-09T01:54:09;3.93;;;1.30;;
9102;SDS011;4587;51.434;6.788;2022-09-09T01:56:40;4.37;;;1.23;;
9102;SDS011;4587;51.434;6.788;2022-09-09T01:59:14;2.60;;;1.30;;
9102;SDS011;4587;51.434;6.788;2022-09-09T02:01:57;3.87;;;1.30;;
9102;SDS011;4587;51.434;6.788;2022-09-09T02:04:40;4.53;;;1.30;;
9102;SDS011;4587;51.434;6.788;2022-09-09T02:07:20;3.60;;;1.70;;
9102;SDS011;4587;51.434;6.788;2022-09-09T02:10:05;2.60;;;1.30;;
9102;SDS011;4587;51.434;6.788;2022-09-09T02:12:33;2.27;;;1.30;;
9102;SDS011;4587;51.434;6.788;2022-09-09T02:15:02;3.83;;;1.40;;
9102;SDS011;4587;51.434;6.788;2022-09-09T02:17:33;2.83;;;1.33;;
9102;SDS011;4587;51.434;6.788;2022-09-09T02:20:08;2.77;;;1.20;;
9102;SDS011;4587;51.434;6.788;2022-09-09T02:22:38;3.30;;;1.17;;
9102;SDS011;4587;51.434;6.788;2022-09-09T02:25:07;3.57;;;1.40;;
9102;SDS011;4587;51.434;6.788;2022-09-09T02:27:35;2.80;;;1.20;;
9102;SDS011;4587;51.434;6.788;2022-09-09T02:30:00;4.10;;;1.23;;
9102;SDS011;4587;51.434;6.788;2022-09-09T02:32:28;3.97;;;1.30;;
9102;SDS011;4587;51.434;6.788;2022-09-09T02:34:57;3.27;;;1.23;;
9102;SDS011;4587;51.434;6.788;2022-09-09T02:37:28;4.17;;;1.40;;
9102;SDS011;4587;51.434;6.788;2022-09-09T02:40:02;3.83;;;1.17;;
9102;SDS011;4587;51.434;6.788;2022-09-09T02:42:29;3.13;;;1.10;;
9102;SDS011;4587;51.434;6.788;2022-09-09T02:44:55;4.00;;;1.20;;
9102;SDS011;4587;51.434;6.788;2022-09-09T02:47:34;2.97;;;1.23;;
9102;SDS011;4587;51.434;6.788;2022-09-09T02:52:44;4.80;;;1.10;;
9102;SDS011;4587;51.434;6.788;2022-09-09T02:55:28;2.53;;;1.10;;
9102;SDS011;4587;51.434;6.788;2022-09-09T02:58:18;2.40;;;1.20;;
9102;SDS011;4587;51.434;6.788;2022-09-09T03:00:45;3.13;;;1.27;;
9102;SDS011;4587;51.434;6.788;2022-09-09T03:03:13;4.07;;;1.40;;
9102;SDS011;4587;51.434;6.788;2022-09-09T03:05:41;3.63;;;1.30;;
9102;SDS011;4587;51.434;6.788;2022-09-09T03:08:08;2.30;;;1.37;;
9102;SDS011;4587;51.434;6.788;2022-09-09T03:10:34;3.30;;;1.40;;
9102;SDS011;4587;51.434;6.788;2022-09-09T03:13:00;3.87;;;1.57;;
9102;SDS011;4587;51.434;6.788;2022-09-09T03:15:26;3.50;;;1.40;;
9102;SDS011;4587;51.434;6.788;2022-09-09T03:17:56;3.83;;;1.50;;
9102;SDS011;4587;51.434;6.788;2022-09-09T03:20:23;6.13;;;1.77;;
9102;SDS011;4587;51.434;6.788;2022-09-09T03:22:53;3.97;;;1.47;;
9102;SDS011;4587;51.434;6.788;2022-09-09T03:25:19;5.07;;;1.63;;
9102;SDS011;4587;51.434;6.788;2022-09-09T03:27:45;3.97;;;1.60;;
9102;SDS011;4587;51.434;6.788;2022-09-09T03:30:10;2.40;;;1.47;;
9102;SDS011;4587;51.434;6.788;2022-09-09T03:32:36;3.07;;;1.30;;
9102;SDS011;4587;51.434;6.788;2022-09-09T03:35:02;3.67;;;1.70;;
9102;SDS011;4587;51.434;6.788;2022-09-09T03:37:28;4.37;;;1.97;;
9102;SDS011;4587;51.434;6.788;2022-09-09T03:39:54;3.60;;;1.97;;
9102;SDS011;4587;51.434;6.788;2022-09-09T03:42:19;4.53;;;1.70;;
9102;SDS011;4587;51.434;6.788;2022-09-09T03:44:45;3.70;;;1.97;;
9102;SDS011;4587;51.434;6.788;2022-09-09T03:47:19;3.17;;;1.70;;
9102;SDS011;4587;51.434;6.788;2022-09-09T03:49:47;3.50;;;1.60;;
9102;SDS011;4587;51.434;6.788;2022-09-09T03:52:13;4.63;;;1.90;;
9102;SDS011;4587;51.434;6.788;2022-09-09T03:54:39;3.47;;;2.10;;
9102;SDS011;4587;51.434;6.788;2022-09-09T03:57:06;3.37;;;1.67;;
9102;SDS011;4587;51.434;6.788;2022-09-09T03:59:31;5.07;;;2.03;;
9102;SDS011;4587;51.434;6.788;2022-09-09T04:01:57;4.27;;;1.70;;
9102;SDS011;4587;51.434;6.788;2022-09-09T04:04:24;3.73;;;2.00;;
9102;SDS011;4587;51.434;6.788;2022-09-09T04:06:50;4.73;;;1.63;;
9102;SDS011;4587;51.434;6.788;2022-09-09T04:09:16;3.77;;;2.33;;
9102;SDS011;4587;51.434;6.788;2022-09-09T04:11:42;5.70;;;1.90;;
9102;SDS011;4587;51.434;6.788;2022-09-09T04:14:07;4.93;;;2.10;;
9102;SDS011;4587;51.434;6.788;2022-09-09T04:16:33;3.37;;;1.70;;
9102;SDS011;4587;51.434;6.788;2022-09-09T04:19:02;6.93;;;2.07;;
9102;SDS011;4587;51.434;6.788;2022-09-09T04:21:29;4.57;;;2.03;;
9102;SDS011;4587;51.434;6.788;2022-09-09T04:23:55;3.47;;;2.00;;
9102;SDS011;4587;51.434;6.788;2022-09-09T04:26:21;4.33;;;1.83;;
9102;SDS011;4587;51.434;6.788;2022-09-09T04:28:47;6.17;;;3.63;;
9102;SDS011;4587;51.434;6.788;2022-09-09T04:31:19;3.77;;;1.90;;
9102;SDS011;4587;51.434;6.788;2022-09-09T04:33:47;5.83;;;2.40;;
9102;SDS011;4587;51.434;6.788;2022-09-09T04:36:14;5.87;;;2.23;;
9102;SDS011;4587;51.434;6.788;2022-09-09T04:38:40;3.20;;;1.73;;
9102;SDS011;4587;51.434;6.788;2022-09-09T04:41:06;5.27;;;1.70;;
9102;SDS011;4587;51.434;6.788;2022-09-09T04:43:36;5.57;;;3.10;;
9102;SDS011;4587;51.434;6.788;2022-09-09T04:46:05;6.00;;;2.07;;
9102;SDS011;4587;51.434;6.788;2022-09-09T04:48:30;4.83;;;2.03;;
9102;SDS011;4587;51.434;6.788;2022-09-09T04:51:03;5.97;;;1.57;;
9102;SDS011;4587;51.434;6.788;2022-09-09T04:53:30;5.80;;;1.80;;
9102;SDS011;4587;51.434;6.788;2022-09-09T04:56:09;3.77;;;1.73;;
9102;SDS011;4587;51.434;6.788;2022-09-09T04:58:39;3.90;;;1.80;;
9102;SDS011;4587;51.434;6.788;2022-09-09T05:01:18;6.63;;;2.30;;
9102;SDS011;4587;51.434;6.788;2022-09-09T05:03:46;3.47;;;1.70;;
9102;SDS011;4587;51.434;6.788;2022-09-09T05:06:13;6.23;;;2.07;;
9102;SDS011;4587;51.434;6.788;2022-09-09T05:08:41;5.63;;;2.00;;
9102;SDS011;4587;51.434;6.788;2022-09-09T05:14:11;6.87;;;2.13;;
9102;SDS011;4587;51.434;6.788;2022-09-09T05:16:37;6.77;;;1.80;;
9102;SDS011;4587;51.434;6.788;2022-09-09T05:19:03;5.77;;;2.10;;
9102;SDS011;4587;51.434;6.788;2022-09-09T05:21:28;5.73;;;1.73;;
9102;SDS011;4587;51.434;6.788;2022-09-09T05:23:55;7.77;;;2.10;;
9102;SDS011;4587;51.434;6.788;2022-09-09T05:26:21;5.20;;;1.73;;
9102;SDS011;4587;51.434;6.788;2022-09-09T05:28:48;7.37;;;1.73;;
9102;SDS011;4587;51.434;6.788;2022-09-09T05:31:14;6.03;;;2.00;;
9102;SDS011;4587;51.434;6.788;2022-09-09T05:33:42;4.07;;;1.50;;
9102;SDS011;4587;51.434;6.788;2022-09-09T05:36:11;4.40;;;1.70;;
9102;SDS011;4587;51.434;6.788;2022-09-09T05:38:39;5.97;;;1.97;;
9102;SDS011;4587;51.434;6.788;2022-09-09T05:41:06;6.20;;;2.03;;
9102;SDS011;4587;51.434;6.788;2022-09-09T05:43:32;7.70;;;2.03;;
9102;SDS011;4587;51.434;6.788;2022-09-09T05:48:33;5.60;;;1.80;;
9102;SDS011;4587;51.434;6.788;2022-09-09T05:51:00;6.10;;;1.70;;
9102;SDS011;4587;51.434;6.788;2022-09-09T05:53:27;4.03;;;2.10;;
9102;SDS011;4587;51.434;6.788;2022-09-09T05:56:07;9.33;;;2.23;;
9102;SDS011;4587;51.434;6.788;2022-09-09T05:58:37;6.57;;;2.20;;
9102;SDS011;4587;51.434;6.788;2022-09-09T06:03:40;8.90;;;2.40;;
9102;SDS011;4587;51.434;6.788;2022-09-09T06:06:08;6.43;;;2.20;;
9102;SDS011;4587;51.434;6.788;2022-09-09T06:08:35;5.87;;;2.00;;
9102;SDS011;4587;51.434;6.788;2022-09-09T06:11:07;8.37;;;2.03;;
9102;SDS011;4587;51.434;6.788;2022-09-09T06:13:38;5.60;;;1.93;;
9102;SDS011;4587;51.434;6.788;2022-09-09T06:16:15;7.50;;;2.03;;
9102;SDS011;4587;51.434;6.788;2022-09-09T06:18:41;7.03;;;2.37;;
9102;SDS011;4587;51.434;6.788;2022-09-09T06:21:27;5.63;;;1.93;;
9102;SDS011;4587;51.434;6.788;2022-09-09T06:23:55;6.50;;;2.00;;
9102;SDS011;4587;51.434;6.788;2022-09-09T06:26:42;6.73;;;1.93;;
9102;SDS011;4587;51.434;6.788;2022-09-09T06:29:07;6.77;;;2.40;;
9102;SDS011;4587;51.434;6.788;2022-09-09T06:31:34;7.27;;;2.13;;
9102;SDS011;4587;51.434;6.788;2022-09-09T06:34:01;7.40;;;1.77;;
9102;SDS011;4587;51.434;6.788;2022-09-09T06:36:30;6.47;;;2.10;;
9102;SDS011;4587;51.434;6.788;2022-09-09T06:39:06;7.97;;;1.90;;
9102;SDS011;4587;51.434;6.788;2022-09-09T06:41:35;4.93;;;1.83;;
9102;SDS011;4587;51.434;6.788;2022-09-09T06:44:03;5.57;;;1.80;;
9102;SDS011;4587;51.434;6.788;2022-09-09T06:46:38;10.07;;;2.30;;
9102;SDS011;4587;51.434;6.788;2022-09-09T06:49:04;7.67;;;2.30;;
9102;SDS011;4587;51.434;6.788;2022-09-09T06:51:30;6.33;;;1.73;;
9102;SDS011;4587;51.434;6.788;2022-09-09T06:53:59;8.30;;;1.90;;
9102;SDS011;4587;51.434;6.788;2022-09-09T06:59:00;8.17;;;2.17;;
9102;SDS011;4587;51.434;6.788;2022-09-09T07:01:29;6.50;;;1.80;;
9102;SDS011;4587;51.434;6.788;2022-09-09T07:03:57;6.53;;;2.03;;
9102;SDS011;4587;51.434;6.788;2022-09-09T07:06:25;5.30;;;1.70;;
9102;SDS011;4587;51.434;6.788;2022-09-09T07:08:56;6.47;;;2.03;;
9102;SDS011;4587;51.434;6.788;2022-09-09T07:11:24;6.10;;;1.90;;
9102;SDS011;4587;51.434;6.788;2022-09-09T07:13:52;7.67;;;1.93;;
9102;SDS011;4587;51.434;6.788;2022-09-09T07:16:18;6.40;;;1.70;;
9102;SDS011;4587;51.434;6.788;2022-09-09T07:18:45;5.50;;;1.70;;
9102;SDS011;4587;51.434;6.788;2022-09-09T07:21:11;5.67;;;1.70;;
9102;SDS011;4587;51.434;6.788;2022-09-09T07:23:38;5.73;;;1.80;;
9102;SDS011;4587;51.434;6.788;2022-09-09T07:26:08;8.90;;;1.77;;
9102;SDS011;4587;51.434;6.788;2022-09-09T07:28:35;5.17;;;1.50;;
9102;SDS011;4587;51.434;6.788;2022-09-09T07:31:01;5.73;;;1.40;;
9102;SDS011;4587;51.434;6.788;2022-09-09T07:33:28;6.50;;;2.07;;
9102;SDS011;4587;51.434;6.788;2022-09-09T07:36:01;6.50;;;1.73;;
9102;SDS011;4587;51.434;6.788;2022-09-09T07:38:28;6.63;;;1.90;;
9102;SDS011;4587;51.434;6.788;2022-09-09T07:41:02;6.53;;;1.57;;
9102;SDS011;4587;51.434;6.788;2022-09-09T07:43:33;6.43;;;1.70;;
9102;SDS011;4587;51.434;6.788;2022-09-09T07:45:59;6.53;;;1.63;;
9102;SDS011;4587;51.434;6.788;2022-09-09T07:48:28;6.60;;;1.80;;
9102;SDS011;4587;51.434;6.788;2022-09-09T07:51:02;5.40;;;1.63;;
9102;SDS011;4587;51.434;6.788;2022-09-09T07:53:31;7.87;;;1.70;;
9102;SDS011;4587;51.434;6.788;2022-09-09T07:56:02;5.10;;;1.40;;
9102;SDS011;4587;51.434;6.788;2022-09-09T07:58:29;10.87;;;2.10;;
9102;SDS011;4587;51.434;6.788;2022-09-09T08:00:54;6.13;;;1.37;;
9102;SDS011;4587;51.434;6.788;2022-09-09T08:03:20;5.90;;;1.57;;
9102;SDS011;4587;51.434;6.788;2022-09-09T08:05:47;7.00;;;1.80;;
9102;SDS011;4587;51.434;6.788;2022-09-09T08:08:12;7.23;;;1.50;;
9102;SDS011;4587;51.434;6.788;2022-09-09T08:10:38;6.70;;;1.53;;
9102;SDS011;4587;51.434;6.788;2022-09-09T08:13:03;4.67;;;1.40;;
9102;SDS011;4587;51.434;6.788;2022-09-09T08:15:29;6.27;;;1.30;;
9102;SDS011;4587;51.434;6.788;2022-09-09T08:17:56;4.90;;;1.67;;
9102;SDS011;4587;51.434;6.788;2022-09-09T08:20:21;3.83;;;1.37;;
9102;SDS011;4587;51.434;6.788;2022-09-09T08:22:48;4.13;;;1.30;;
9102;SDS011;4587;51.434;6.788;2022-09-09T08:25:15;5.30;;;1.33;;
9102;SDS011;4587;51.434;6.788;2022-09-09T08:27:40;7.37;;;1.70;;
9102;SDS011;4587;51.434;6.788;2022-09-09T08:30:06;3.73;;;1.30;;
9102;SDS011;4587;51.434;6.788;2022-09-09T08:32:32;4.60;;;1.40;;
9102;SDS011;4587;51.434;6.788;2022-09-09T08:34:57;5.00;;;1.33;;
9102;SDS011;4587;51.434;6.788;2022-09-09T08:37:23;5.30;;;1.20;;
9102;SDS011;4587;51.434;6.788;2022-09-09T08:39:48;5.30;;;1.43;;
9102;SDS011;4587;51.434;6.788;2022-09-09T08:42:21;6.67;;;1.57;;
9102;SDS011;4587;51.434;6.788;2022-09-09T08:50:16;4.73;;;1.03;;
9102;SDS011;4587;51.434;6.788;2022-09-09T08:58:16;4.27;;;1.33;;
9102;SDS011;4587;51.434;6.788;2022-09-09T09:06:54;5.47;;;1.13;;
9102;SDS011;4587;51.434;6.788;2022-09-09T09:10:07;5.80;;;1.50;;
9102;SDS011;4587;51.434;6.788;2022-09-09T09:12:41;5.93;;;1.40;;
9102;SDS011;4587;51.434;6.788;2022-09-09T09:15:11;7.23;;;1.20;;
9102;SDS011;4587;51.434;6.788;2022-09-09T09:17:42;5.03;;;1.20;;
9102;SDS011;4587;51.434;6.788;2022-09-09T09:20:12;6.37;;;1.77;;
9102;SDS011;4587;51.434;6.788;2022-09-09T09:22:45;6.30;;;1.33;;
9102;SDS011;4587;51.434;6.788;2022-09-09T09:25:22;4.90;;;1.40;;
9102;SDS011;4587;51.434;6.788;2022-09-09T09:28:00;4.03;;;1.30;;
9102;SDS011;4587;51.434;6.788;2022-09-09T09:30:55;3.80;;;1.30;;
9102;SDS011;4587;51.434;6.788;2022-09-09T09:36:15;4.03;;;1.30;;
9102;SDS011;4587;51.434;6.788;2022-09-09T09:38:57;4.63;;;1.43;;
9102;SDS011;4587;51.434;6.788;2022-09-09T09:43:56;6.57;;;1.30;;
9102;SDS011;4587;51.434;6.788;2022-09-09T09:46:23;5.20;;;1.40;;
9102;SDS011;4587;51.434;6.788;2022-09-09T09:49:23;7.40;;;1.33;;
9102;SDS011;4587;51.434;6.788;2022-09-09T09:51:42;9.20;;;1.40;;
9102;SDS011;4587;51.434;6.788;2022-09-09T09:56:38;4.53;;;1.50;;
9102;SDS011;4587;51.434;6.788;2022-09-09T09:59:05;3.93;;;1.40;;
9102;SDS011;4587;51.434;6.788;2022-09-09T10:01:44;4.60;;;1.40;;
9102;SDS011;4587;51.434;6.788;2022-09-09T10:04:14;4.50;;;1.00;;
9102;SDS011;4587;51.434;6.788;2022-09-09T10:06:48;4.27;;;1.30;;
9102;SDS011;4587;51.434;6.788;2022-09-09T10:17:15;4.80;;;1.20;;
9102;SDS011;4587;51.434;6.788;2022-09-09T10:19:51;3.93;;;1.07;;
9102;SDS011;4587;51.434;6.788;2022-09-09T10:22:33;6.03;;;0.97;;
9102;SDS011;4587;51.434;6.788;2022-09-09T10:27:44;5.37;;;1.10;;
9102;SDS011;4587;51.434;6.788;2022-09-09T10:30:24;3.83;;;1.30;;
9102;SDS011;4587;51.434;6.788;2022-09-09T10:33:10;5.13;;;1.10;;
9102;SDS011;4587;51.434;6.788;2022-09-09T10:38:30;3.77;;;1.10;;
9102;SDS011;4587;51.434;6.788;2022-09-09T10:43:44;2.63;;;1.10;;
9102;SDS011;4587;51.434;6.788;2022-09-09T10:46:15;4.43;;;1.00;;
9102;SDS011;4587;51.434;6.788;2022-09-09T10:54:30;4.87;;;1.00;;
9102;SDS011;4587;51.434;6.788;2022-09-09T10:57:27;3.07;;;1.00;;
9102;SDS011;4587;51.434;6.788;2022-09-09T11:02:39;2.77;;;1.07;;
9102;SDS011;4587;51.434;6.788;2022-09-09T11:08:04;5.33;;;1.00;;
9102;SDS011;4587;51.434;6.788;2022-09-09T11:11:18;2.93;;;0.90;;
9102;SDS011;4587;51.434;6.788;2022-09-09T11:13:26;3.10;;;1.40;;
9102;SDS011;4587;51.434;6.788;2022-09-09T11:16:10;4.30;;;1.00;;
9102;SDS011;4587;51.434;6.788;2022-09-09T11:18:39;5.33;;;1.30;;
9102;SDS011;4587;51.434;6.788;2022-09-09T11:21:09;5.27;;;1.23;;
9102;SDS011;4587;51.434;6.788;2022-09-09T11:23:49;4.50;;;1.10;;
9102;SDS011;4587;51.434;6.788;2022-09-09T11:26:25;5.33;;;1.00;;
9102;SDS011;4587;51.434;6.788;2022-09-09T11:37:17;3.83;;;1.00;;
9102;SDS011;4587;51.434;6.788;2022-09-09T11:45:57;4.57;;;1.10;;
9102;SDS011;4587;51.434;6.788;2022-09-09T11:51:25;3.57;;;1.13;;
9102;SDS011;4587;51.434;6.788;2022-09-09T11:53:57;2.73;;;1.00;;
9102;SDS011;4587;51.434;6.788;2022-09-09T11:59:29;2.20;;;0.50;;
9102;SDS011;4587;51.434;6.788;2022-09-09T12:01:59;1.47;;;0.60;;
9102;SDS011;4587;51.434;6.788;2022-09-09T12:04:35;1.87;;;0.80;;
9102;SDS011;4587;51.434;6.788;2022-09-09T12:09:43;2.23;;;0.80;;
9102;SDS011;4587;51.434;6.788;2022-09-09T12:17:20;3.37;;;0.63;;
9102;SDS011;4587;51.434;6.788;2022-09-09T12:19:48;5.13;;;0.80;;
9102;SDS011;4587;51.434;6.788;2022-09-09T12:27:57;2.43;;;1.10;;
9102;SDS011;4587;51.434;6.788;2022-09-09T12:30:40;8.40;;;1.10;;
9102;SDS011;4587;51.434;6.788;2022-09-09T12:33:13;2.30;;;0.87;;
9102;SDS011;4587;51.434;6.788;2022-09-09T12:35:41;4.10;;;1.03;;
9102;SDS011;4587;51.434;6.788;2022-09-09T12:38:12;3.60;;;1.10;;
9102;SDS011;4587;51.434;6.788;2022-09-09T12:40:53;4.87;;;1.00;;
9102;SDS011;4587;51.434;6.788;2022-09-09T12:43:21;3.17;;;0.90;;
9102;SDS011;4587;51.434;6.788;2022-09-09T12:45:48;2.57;;;0.80;;
9102;SDS011;4587;51.434;6.788;2022-09-09T12:48:21;3.57;;;1.00;;
9102;SDS011;4587;51.434;6.788;2022-09-09T12:50:53;2.73;;;0.87;;
9102;SDS011;4587;51.434;6.788;2022-09-09T12:55:52;4.73;;;1.60;;
9102;SDS011;4587;51.434;6.788;2022-09-09T12:58:21;4.50;;;2.00;;
9102;SDS011;4587;51.434;6.788;2022-09-09T13:00:50;3.43;;;1.77;;
9102;SDS011;4587;51.434;6.788;2022-09-09T13:03:18;5.47;;;1.77;;
9102;SDS011;4587;51.434;6.788;2022-09-09T13:05:46;4.40;;;1.33;;
9102;SDS011;4587;51.434;6.788;2022-09-09T13:08:12;5.23;;;1.17;;
9102;SDS011;4587;51.434;6.788;2022-09-09T13:13:23;2.63;;;1.00;;
9102;SDS011;4587;51.434;6.788;2022-09-09T13:15:52;2.90;;;1.10;;
9102;SDS011;4587;51.434;6.788;2022-09-09T13:18:23;6.03;;;1.80;;
9102;SDS011;4587;51.434;6.788;2022-09-09T13:20:52;5.90;;;2.60;;
9102;SDS011;4587;51.434;6.788;2022-09-09T13:23:19;6.80;;;2.80;;
9102;SDS011;4587;51.434;6.788;2022-09-09T13:25:56;8.53;;;3.50;;
9102;SDS011;4587;51.434;6.788;2022-09-09T13:28:27;6.93;;;3.50;;
9102;SDS011;4587;51.434;6.788;2022-09-09T13:30:58;7.37;;;3.53;;
9102;SDS011;4587;51.434;6.788;2022-09-09T13:33:32;6.00;;;3.27;;
9102;SDS011;4587;51.434;6.788;2022-09-09T13:36:03;7.50;;;3.60;;
9102;SDS011;4587;51.434;6.788;2022-09-09T13:39:16;6.93;;;3.53;;
9102;SDS011;4587;51.434;6.788;2022-09-09T13:41:32;7.07;;;3.47;;
9102;SDS011;4587;51.434;6.788;2022-09-09T13:43:59;6.43;;;3.30;;
9102;SDS011;4587;51.434;6.788;2022-09-09T13:49:00;4.87;;;2.80;;
9102;SDS011;4587;51.434;6.788;2022-09-09T13:51:29;7.23;;;3.23;;
9102;SDS011;4587;51.434;6.788;2022-09-09T13:54:06;4.50;;;2.20;;
9102;SDS011;4587;51.434;6.788;2022-09-09T13:56:35;5.83;;;2.30;;
9102;SDS011;4587;51.434;6.788;2022-09-09T13:59:03;5.93;;;1.80;;
9102;SDS011;4587;51.434;6.788;2022-09-09T14:01:30;4.03;;;1.70;;
9102;SDS011;4587;51.434;6.788;2022-09-09T14:03:56;3.87;;;1.57;;
9102;SDS011;4587;51.434;6.788;2022-09-09T14:06:21;3.37;;;1.30;;
9102;SDS011;4587;51.434;6.788;2022-09-09T14:08:49;4.40;;;1.10;;
9102;SDS011;4587;51.434;6.788;2022-09-09T14:11:16;3.07;;;1.27;;
9102;SDS011;4587;51.434;6.788;2022-09-09T14:13:42;2.73;;;1.20;;
9102;SDS011;4587;51.434;6.788;2022-09-09T14:16:08;3.33;;;1.20;;
9102;SDS011;4587;51.434;6.788;2022-09-09T14:18:34;5.73;;;1.57;;
9102;SDS011;4587;51.434;6.788;2022-09-09T14:21:00;6.33;;;1.47;;
9102;SDS011;4587;51.434;6.788;2022-09-09T14:23:27;2.57;;;1.20;;
9102;SDS011;4587;51.434;6.788;2022-09-09T14:25:52;4.13;;;1.17;;
9102;SDS011;4587;51.434;6.788;2022-09-09T14:28:18;5.40;;;1.70;;
9102;SDS011;4587;51.434;6.788;2022-09-09T14:30:43;6.40;;;1.70;;
9102;SDS011;4587;51.434;6.788;2022-09-09T14:33:10;7.33;;;1.73;;
9102;SDS011;4587;51.434;6.788;2022-09-09T14:35:38;5.30;;;1.60;;
9102;SDS011;4587;51.434;6.788;2022-09-09T14:38:05;3.47;;;1.33;;
9102;SDS011;4587;51.434;6.788;2022-09-09T14:40:31;6.83;;;1.53;;
9102;SDS011;4587;51.434;6.788;2022-09-09T14:42:56;5.53;;;1.40;;
9102;SDS011;4587;51.434;6.788;2022-09-09T14:45:23;3.40;;;1.03;;
9102;SDS011;4587;51.434;6.788;2022-09-09T14:47:50;1.93;;;0.60;;
9102;SDS011;4587;51.434;6.788;2022-09-09T14:50:16;1.37;;;0.70;;
9102;SDS011;4587;51.434;6.788;2022-09-09T14:52:43;1.53;;;0.63;;
9102;SDS011;4587;51.434;6.788;2022-09-09T14:55:09;1.80;;;0.70;;
9102;SDS011;4587;51.434;6.788;2022-09-09T14:57:34;4.60;;;0.70;;
9102;SDS011;4587;51.434;6.788;2022-09-09T15:00:01;1.90;;;0.77;;
9102;SDS011;4587;51.434;6.788;2022-09-09T15:02:28;2.70;;;0.60;;
9102;SDS011;4587;51.434;6.788;2022-09-09T15:04:54;1.40;;;0.67;;
9102;SDS011;4587;51.434;6.788;2022-09-09T15:07:22;1.27;;;0.50;;
9102;SDS011;4587;51.434;6.788;2022-09-09T15:09:48;1.27;;;0.60;;
9102;SDS011;4587;51.434;6.788;2022-09-09T15:12:14;2.20;;;0.70;;
9102;SDS011;4587;51.434;6.788;2022-09-09T15:14:40;1.97;;;0.70;;
9102;SDS011;4587;51.434;6.788;2022-09-09T15:17:06;3.17;;;1.00;;
9102;SDS011;4587;51.434;6.788;2022-09-09T15:19:31;3.20;;;1.33;;
9102;SDS011;4587;51.434;6.788;2022-09-09T15:21:57;5.23;;;1.90;;
9102;SDS011;4587;51.434;6.788;2022-09-09T15:24:24;4.43;;;2.00;;
9102;SDS011;4587;51.434;6.788;2022-09-09T15:26:51;3.77;;;2.00;;
9102;SDS011;4587;51.434;6.788;2022-09-09T15:29:18;2.93;;;1.87;;
9102;SDS011;4587;51.434;6.788;2022-09-09T15:31:44;2.53;;;1.60;;
9102;SDS011;4587;51.434;6.788;2022-09-09T15:34:10;2.87;;;0.83;;
9102;SDS011;4587;51.434;6.788;2022-09-09T15:39:06;2.67;;;1.00;;
9102;SDS011;4587;51.434;6.788;2022-09-09T15:41:37;2.73;;;0.83;;
9102;SDS011;4587;51.434;6.788;2022-09-09T15:44:03;2.50;;;0.93;;
9102;SDS011;4587;51.434;6.788;2022-09-09T15:46:30;1.67;;;0.77;;
9102;SDS011;4587;51.434;6.788;2022-09-09T15:49:09;2.60;;;0.77;;
9102;SDS011;4587;51.434;6.788;2022-09-09T15:51:38;5.33;;;0.97;;
9102;SDS011;4587;51.434;6.788;2022-09-09T15:54:09;2.63;;;0.93;;
9102;SDS011;4587;51.434;6.788;2022-09-09T15:56:40;2.77;;;0.90;;
9102;SDS011;4587;51.434;6.788;2022-09-09T15:59:06;2.60;;;1.00;;
9102;SDS011;4587;51.434;6.788;2022-09-09T16:01:31;3.57;;;0.93;;
9102;SDS011;4587;51.434;6.788;2022-09-09T16:03:58;3.30;;;0.73;;
9102;SDS011;4587;51.434;6.788;2022-09-09T16:06:25;2.00;;;0.90;;
9102;SDS011;4587;51.434;6.788;2022-09-09T16:08:53;2.80;;;0.80;;
9102;SDS011;4587;51.434;6.788;2022-09-09T16:11:20;3.03;;;0.97;;
9102;SDS011;4587;51.434;6.788;2022-09-09T16:13:48;3.10;;;0.93;;
9102;SDS011;4587;51.434;6.788;2022-09-09T16:16:16;2.00;;;0.70;;
9102;SDS011;4587;51.434;6.788;2022-09-09T16:18:46;1.63;;;0.70;;
9102;SDS011;4587;51.434;6.788;2022-09-09T16:21:15;4.90;;;0.90;;
9102;SDS011;4587;51.434;6.788;2022-09-09T16:23:45;1.63;;;0.70;;
9102;SDS011;4587;51.434;6.788;2022-09-09T16:26:12;1.90;;;0.77;;
9102;SDS011;4587;51.434;6.788;2022-09-09T16:28:39;2.43;;;1.00;;
9102;SDS011;4587;51.434;6.788;2022-09-09T16:31:05;2.53;;;0.90;;
9102;SDS011;4587;51.434;6.788;2022-09-09T16:33:36;1.87;;;0.90;;
9102;SDS011;4587;51.434;6.788;2022-09-09T16:36:05;1.80;;;0.80;;
9102;SDS011;4587;51.434;6.788;2022-09-09T16:38:35;3.33;;;1.00;;
9102;SDS011;4587;51.434;6.788;2022-09-09T16:41:02;3.13;;;0.90;;
9102;SDS011;4587;51.434;6.788;2022-09-09T16:43:30;2.57;;;1.10;;
9102;SDS011;4587;51.434;6.788;2022-09-09T16:45:57;2.90;;;1.10;;
9102;SDS011;4587;51.434;6.788;2022-09-09T16:48:25;2.30;;;0.90;;
9102;SDS011;4587;51.434;6.788;2022-09-09T16:51:05;2.07;;;1.23;;
9102;SDS011;4587;51.434;6.788;2022-09-09T16:53:33;2.67;;;1.10;;
9102;SDS011;4587;51.434;6.788;2022-09-09T16:56:04;2.47;;;1.20;;
9102;SDS011;4587;51.434;6.788;2022-09-09T16:58:33;4.17;;;1.20;;
9102;SDS011;4587;51.434;6.788;2022-09-09T17:00:59;2.80;;;1.33;;
9102;SDS011;4587;51.434;6.788;2022-09-09T17:03:27;2.40;;;1.10;;
9102;SDS011;4587;51.434;6.788;2022-09-09T17:05:53;3.83;;;1.30;;
9102;SDS011;4587;51.434;6.788;2022-09-09T17:08:18;3.13;;;1.60;;
9102;SDS011;4587;51.434;6.788;2022-09-09T17:10:44;3.20;;;1.40;;
9102;SDS011;4587;51.434;6.788;2022-09-09T17:13:10;3.73;;;1.53;;
9102;SDS011;4587;51.434;6.788;2022-09-09T17:15:41;3.57;;;1.80;;
9102;SDS011;4587;51.434;6.788;2022-09-09T17:18:10;3.77;;;1.50;;
9102;SDS011;4587;51.434;6.788;2022-09-09T17:20:37;3.87;;;1.10;;
9102;SDS011;4587;51.434;6.788;2022-09-09T17:23:12;3.73;;;1.37;;
9102;SDS011;4587;51.434;6.788;2022-09-09T17:25:40;3.53;;;1.20;;
9102;SDS011;4587;51.434;6.788;2022-09-09T17:28:06;4.73;;;1.30;;
9102;SDS011;4587;51.434;6.788;2022-09-09T17:30:34;4.37;;;1.47;;
9102;SDS011;4587;51.434;6.788;2022-09-09T17:33:01;3.30;;;1.47;;
9102;SDS011;4587;51.434;6.788;2022-09-09T17:35:28;3.33;;;1.30;;
9102;SDS011;4587;51.434;6.788;2022-09-09T17:37:54;3.87;;;1.20;;
9102;SDS011;4587;51.434;6.788;2022-09-09T17:40:21;3.47;;;1.37;;
9102;SDS011;4587;51.434;6.788;2022-09-09T17:42:47;3.13;;;1.70;;
9102;SDS011;4587;51.434;6.788;2022-09-09T17:45:13;3.67;;;1.60;;
9102;SDS011;4587;51.434;6.788;2022-09-09T17:47:39;6.07;;;1.50;;
9102;SDS011;4587;51.434;6.788;2022-09-09T17:50:07;3.50;;;1.47;;
9102;SDS011;4587;51.434;6.788;2022-09-09T17:52:34;4.83;;;1.60;;